sensor_id;sensor_type;location;lat;lon;timestamp;temperature;humidity
14473;DHT22;7322;50.872;4.386;2023-08-24T00:03:19;28.00;99.90
14473;DHT22;7322;50.872;4.386;2023-08-24T00:06:08;28.00;99.90
14473;DHT22;7322;50.872;4.386;2023-08-24T00:14:47;28.00;99.90
14473;DHT22;7322;50.872;4.386;2023-08-24T00:17:31;28.00;99.90
14473;DHT22;7322;50.872;4.386;2023-08-24T00:20:00;28.00;99.90
14473;DHT22;7322;50.872;4.386;2023-08-24T00:22:41;27.90;99.90
14473;DHT22;7322;50.872;4.386;2023-08-24T00:35:34;27.90;99.90
14473;DHT22;7322;50.872;4.386;2023-08-24T00:41:25;27.90;99.90
14473;DHT22;7322;50.872;4.386;2023-08-24T00:44:03;27.90;99.90
14473;DHT22;7322;50.872;4.386;2023-08-24T00:52:54;27.90;99.90
14473;DHT22;7322;50.872;4.386;2023-08-24T00:55:51;27.90;99.90
14473;DHT22;7322;50.872;4.386;2023-08-24T00:58:33;27.90;99.90
14473;DHT22;7322;50.872;4.386;2023-08-24T01:01:12;27.90;99.90
14473;DHT22;7322;50.872;4.386;2023-08-24T01:04:05;27.90;99.90
14473;DHT22;7322;50.872;4.386;2023-08-24T01:06:34;27.90;99.90
14473;DHT22;7322;50.872;4.386;2023-08-24T01:09:19;27.90;99.90
14473;DHT22;7322;50.872;4.386;2023-08-24T01:12:25;27.90;99.90
14473;DHT22;7322;50.872;4.386;2023-08-24T01:15:07;27.90;99.90
14473;DHT22;7322;50.872;4.386;2023-08-24T01:20:48;27.90;99.90
14473;DHT22;7322;50.872;4.386;2023-08-24T01:23:32;27.90;99.90
14473;DHT22;7322;50.872;4.386;2023-08-24T01:26:11;27.90;99.90
14473;DHT22;7322;50.872;4.386;2023-08-24T01:28:57;27.90;99.90
14473;DHT22;7322;50.872;4.386;2023-08-24T01:31:26;27.90;99.90
14473;DHT22;7322;50.872;4.386;2023-08-24T01:34:16;27.90;99.90
14473;DHT22;7322;50.872;4.386;2023-08-24T01:40:26;27.90;99.90
14473;DHT22;7322;50.872;4.386;2023-08-24T01:43:10;27.90;99.90
14473;DHT22;7322;50.872;4.386;2023-08-24T01:45:44;27.90;99.90
14473;DHT22;7322;50.872;4.386;2023-08-24T01:48:48;27.90;99.90
14473;DHT22;7322;50.872;4.386;2023-08-24T01:51:34;27.90;99.90
14473;DHT22;7322;50.872;4.386;2023-08-24T01:54:02;27.90;99.90
14473;DHT22;7322;50.872;4.386;2023-08-24T01:56:36;27.80;99.90
14473;DHT22;7322;50.872;4.386;2023-08-24T01:59:11;27.90;99.90
14473;DHT22;7322;50.872;4.386;2023-08-24T02:01:39;27.90;99.90
14473;DHT22;7322;50.872;4.386;2023-08-24T02:04:06;27.90;99.90
14473;DHT22;7322;50.872;4.386;2023-08-24T02:06:34;27.90;99.90
14473;DHT22;7322;50.872;4.386;2023-08-24T02:09:01;27.90;99.90
14473;DHT22;7322;50.872;4.386;2023-08-24T02:11:32;27.90;99.90
14473;DHT22;7322;50.872;4.386;2023-08-24T02:14:01;27.90;99.90
14473;DHT22;7322;50.872;4.386;2023-08-24T02:16:48;27.90;99.90
14473;DHT22;7322;50.872;4.386;2023-08-24T02:19:15;27.90;99.90
14473;DHT22;7322;50.872;4.386;2023-08-24T02:21:48;27.90;99.90
14473;DHT22;7322;50.872;4.386;2023-08-24T02:24:17;27.90;99.90
14473;DHT22;7322;50.872;4.386;2023-08-24T02:26:51;27.90;99.90
14473;DHT22;7322;50.872;4.386;2023-08-24T02:29:26;27.90;99.90
14473;DHT22;7322;50.872;4.386;2023-08-24T02:32:06;27.90;99.90
14473;DHT22;7322;50.872;4.386;2023-08-24T02:34:56;27.90;99.90
14473;DHT22;7322;50.872;4.386;2023-08-24T02:37:29;27.90;99.90
14473;DHT22;7322;50.872;4.386;2023-08-24T02:40:05;27.90;99.90
14473;DHT22;7322;50.872;4.386;2023-08-24T02:42:37;27.80;99.90
14473;DHT22;7322;50.872;4.386;2023-08-24T02:45:06;27.80;99.90
14473;DHT22;7322;50.872;4.386;2023-08-24T02:47:44;27.80;99.90
14473;DHT22;7322;50.872;4.386;2023-08-24T02:50:11;27.80;99.90
14473;DHT22;7322;50.872;4.386;2023-08-24T02:52:46;27.80;99.90
14473;DHT22;7322;50.872;4.386;2023-08-24T02:55:15;27.80;99.90
14473;DHT22;7322;50.872;4.386;2023-08-24T02:57:44;27.80;99.90
14473;DHT22;7322;50.872;4.386;2023-08-24T03:00:12;27.80;99.90
14473;DHT22;7322;50.872;4.386;2023-08-24T03:02:41;27.80;99.90
14473;DHT22;7322;50.872;4.386;2023-08-24T03:05:40;27.80;99.90
14473;DHT22;7322;50.872;4.386;2023-08-24T03:18:37;27.80;99.90
14473;DHT22;7322;50.872;4.386;2023-08-24T03:21:19;27.80;99.90
14473;DHT22;7322;50.872;4.386;2023-08-24T03:24:03;27.70;99.90
14473;DHT22;7322;50.872;4.386;2023-08-24T03:26:39;27.80;99.90
14473;DHT22;7322;50.872;4.386;2023-08-24T03:29:18;27.80;99.90
14473;DHT22;7322;50.872;4.386;2023-08-24T03:31:49;27.80;99.90
14473;DHT22;7322;50.872;4.386;2023-08-24T03:34:18;27.80;99.90
14473;DHT22;7322;50.872;4.386;2023-08-24T03:36:53;27.80;99.90
14473;DHT22;7322;50.872;4.386;2023-08-24T03:39:28;27.80;99.90
14473;DHT22;7322;50.872;4.386;2023-08-24T03:42:03;27.80;99.90
14473;DHT22;7322;50.872;4.386;2023-08-24T03:44:33;27.80;99.90
14473;DHT22;7322;50.872;4.386;2023-08-24T03:47:01;27.80;99.90
14473;DHT22;7322;50.872;4.386;2023-08-24T03:49:30;27.80;99.90
14473;DHT22;7322;50.872;4.386;2023-08-24T03:52:20;27.80;99.90
14473;DHT22;7322;50.872;4.386;2023-08-24T03:54:47;27.80;99.90
14473;DHT22;7322;50.872;4.386;2023-08-24T03:57:27;27.80;99.90
14473;DHT22;7322;50.872;4.386;2023-08-24T03:59:55;27.80;99.90
14473;DHT22;7322;50.872;4.386;2023-08-24T04:02:23;27.80;99.90
14473;DHT22;7322;50.872;4.386;2023-08-24T04:04:51;27.70;99.90
14473;DHT22;7322;50.872;4.386;2023-08-24T04:07:18;27.70;99.90
14473;DHT22;7322;50.872;4.386;2023-08-24T04:09:46;27.70;99.90
14473;DHT22;7322;50.872;4.386;2023-08-24T04:12:15;27.70;99.90
14473;DHT22;7322;50.872;4.386;2023-08-24T04:14:44;27.70;99.90
14473;DHT22;7322;50.872;4.386;2023-08-24T04:17:12;27.70;99.90
14473;DHT22;7322;50.872;4.386;2023-08-24T04:19:39;27.70;99.90
14473;DHT22;7322;50.872;4.386;2023-08-24T04:22:06;27.70;99.90
14473;DHT22;7322;50.872;4.386;2023-08-24T04:24:33;27.80;99.90
14473;DHT22;7322;50.872;4.386;2023-08-24T04:27:02;27.80;99.90
14473;DHT22;7322;50.872;4.386;2023-08-24T04:29:29;27.80;99.90
14473;DHT22;7322;50.872;4.386;2023-08-24T04:31:57;27.80;99.90
14473;DHT22;7322;50.872;4.386;2023-08-24T04:34:24;27.80;99.90
14473;DHT22;7322;50.872;4.386;2023-08-24T04:36:52;27.80;99.90
14473;DHT22;7322;50.872;4.386;2023-08-24T04:39:20;27.80;99.90
14473;DHT22;7322;50.872;4.386;2023-08-24T04:41:49;27.80;99.90
14473;DHT22;7322;50.872;4.386;2023-08-24T04:44:17;27.80;99.90
14473;DHT22;7322;50.872;4.386;2023-08-24T04:46:45;27.80;99.90
14473;DHT22;7322;50.872;4.386;2023-08-24T04:49:12;27.80;99.90
14473;DHT22;7322;50.872;4.386;2023-08-24T04:51:41;27.80;99.90
14473;DHT22;7322;50.872;4.386;2023-08-24T04:54:11;27.80;99.90
14473;DHT22;7322;50.872;4.386;2023-08-24T04:56:44;27.80;99.90
14473;DHT22;7322;50.872;4.386;2023-08-24T04:59:13;27.80;99.90
14473;DHT22;7322;50.872;4.386;2023-08-24T05:01:48;27.80;99.90
14473;DHT22;7322;50.872;4.386;2023-08-24T05:04:15;27.80;99.90
14473;DHT22;7322;50.872;4.386;2023-08-24T05:06:44;27.70;99.90
14473;DHT22;7322;50.872;4.386;2023-08-24T05:09:12;27.70;99.90
14473;DHT22;7322;50.872;4.386;2023-08-24T05:11:46;27.80;99.90
14473;DHT22;7322;50.872;4.386;2023-08-24T05:14:13;27.80;99.90
14473;DHT22;7322;50.872;4.386;2023-08-24T05:16:42;27.80;99.90
14473;DHT22;7322;50.872;4.386;2023-08-24T05:19:13;27.80;99.90
14473;DHT22;7322;50.872;4.386;2023-08-24T05:21:40;27.80;99.90
14473;DHT22;7322;50.872;4.386;2023-08-24T05:24:30;27.70;99.90
14473;DHT22;7322;50.872;4.386;2023-08-24T05:27:16;27.80;99.90
14473;DHT22;7322;50.872;4.386;2023-08-24T05:30:06;27.80;99.90
14473;DHT22;7322;50.872;4.386;2023-08-24T05:32:47;27.80;99.90
14473;DHT22;7322;50.872;4.386;2023-08-24T05:35:17;27.80;99.90
14473;DHT22;7322;50.872;4.386;2023-08-24T05:38:11;27.70;99.90
14473;DHT22;7322;50.872;4.386;2023-08-24T05:41:04;27.80;99.90
14473;DHT22;7322;50.872;4.386;2023-08-24T05:43:38;27.80;99.90
14473;DHT22;7322;50.872;4.386;2023-08-24T05:46:15;27.80;99.90
14473;DHT22;7322;50.872;4.386;2023-08-24T05:48:49;27.80;99.90
14473;DHT22;7322;50.872;4.386;2023-08-24T05:51:37;27.80;99.90
14473;DHT22;7322;50.872;4.386;2023-08-24T05:54:11;27.80;99.90
14473;DHT22;7322;50.872;4.386;2023-08-24T05:56:47;27.80;99.90
14473;DHT22;7322;50.872;4.386;2023-08-24T05:59:18;27.80;99.90
14473;DHT22;7322;50.872;4.386;2023-08-24T06:01:52;27.70;99.90
14473;DHT22;7322;50.872;4.386;2023-08-24T06:04:20;27.70;99.90
14473;DHT22;7322;50.872;4.386;2023-08-24T06:06:50;27.70;99.90
14473;DHT22;7322;50.872;4.386;2023-08-24T06:09:17;27.70;99.90
14473;DHT22;7322;50.872;4.386;2023-08-24T06:11:47;27.70;99.90
14473;DHT22;7322;50.872;4.386;2023-08-24T06:14:23;27.70;99.90
14473;DHT22;7322;50.872;4.386;2023-08-24T06:16:56;27.80;99.90
14473;DHT22;7322;50.872;4.386;2023-08-24T06:19:23;27.80;99.90
14473;DHT22;7322;50.872;4.386;2023-08-24T06:21:53;27.80;99.90
14473;DHT22;7322;50.872;4.386;2023-08-24T06:24:30;27.80;99.90
14473;DHT22;7322;50.872;4.386;2023-08-24T06:26:57;27.90;99.90
14473;DHT22;7322;50.872;4.386;2023-08-24T06:29:28;27.80;99.90
14473;DHT22;7322;50.872;4.386;2023-08-24T06:32:03;27.90;99.90
14473;DHT22;7322;50.872;4.386;2023-08-24T06:34:31;27.90;99.90
14473;DHT22;7322;50.872;4.386;2023-08-24T06:37:18;27.90;99.90
14473;DHT22;7322;50.872;4.386;2023-08-24T06:39:45;28.00;99.90
14473;DHT22;7322;50.872;4.386;2023-08-24T06:42:12;28.00;99.90
14473;DHT22;7322;50.872;4.386;2023-08-24T06:44:42;28.00;99.90
14473;DHT22;7322;50.872;4.386;2023-08-24T06:47:11;27.90;99.90
14473;DHT22;7322;50.872;4.386;2023-08-24T06:49:44;28.00;99.90
14473;DHT22;7322;50.872;4.386;2023-08-24T06:52:24;28.00;99.90
14473;DHT22;7322;50.872;4.386;2023-08-24T06:55:05;28.00;99.90
14473;DHT22;7322;50.872;4.386;2023-08-24T06:57:33;28.00;99.90
14473;DHT22;7322;50.872;4.386;2023-08-24T07:00:02;28.00;99.90
14473;DHT22;7322;50.872;4.386;2023-08-24T07:02:32;28.00;99.90
14473;DHT22;7322;50.872;4.386;2023-08-24T07:05:00;28.00;99.90
14473;DHT22;7322;50.872;4.386;2023-08-24T07:07:32;28.00;99.90
14473;DHT22;7322;50.872;4.386;2023-08-24T07:10:06;28.10;99.90
14473;DHT22;7322;50.872;4.386;2023-08-24T07:12:33;28.10;99.90
14473;DHT22;7322;50.872;4.386;2023-08-24T07:15:02;27.90;99.90
14473;DHT22;7322;50.872;4.386;2023-08-24T07:17:30;27.80;99.90
14473;DHT22;7322;50.872;4.386;2023-08-24T07:19:57;27.80;99.90
14473;DHT22;7322;50.872;4.386;2023-08-24T07:22:24;27.60;99.90
14473;DHT22;7322;50.872;4.386;2023-08-24T07:24:53;27.60;99.90
14473;DHT22;7322;50.872;4.386;2023-08-24T07:27:22;27.60;99.90
14473;DHT22;7322;50.872;4.386;2023-08-24T07:30:01;27.70;99.90
14473;DHT22;7322;50.872;4.386;2023-08-24T07:32:41;27.80;99.90
14473;DHT22;7322;50.872;4.386;2023-08-24T07:35:13;27.80;99.90
14473;DHT22;7322;50.872;4.386;2023-08-24T07:37:48;27.90;99.90
14473;DHT22;7322;50.872;4.386;2023-08-24T07:40:17;28.00;99.90
14473;DHT22;7322;50.872;4.386;2023-08-24T07:42:45;27.90;99.90
14473;DHT22;7322;50.872;4.386;2023-08-24T07:45:14;27.90;99.90
14473;DHT22;7322;50.872;4.386;2023-08-24T07:47:48;27.90;99.90
14473;DHT22;7322;50.872;4.386;2023-08-24T07:50:18;27.90;99.90
14473;DHT22;7322;50.872;4.386;2023-08-24T07:53:03;27.90;99.90
14473;DHT22;7322;50.872;4.386;2023-08-24T07:55:31;28.00;99.90
14473;DHT22;7322;50.872;4.386;2023-08-24T07:57:58;28.00;99.90
14473;DHT22;7322;50.872;4.386;2023-08-24T08:00:27;28.00;99.90
14473;DHT22;7322;50.872;4.386;2023-08-24T08:02:54;28.00;99.90
14473;DHT22;7322;50.872;4.386;2023-08-24T08:05:27;28.10;99.90
14473;DHT22;7322;50.872;4.386;2023-08-24T08:07:58;28.10;99.90
14473;DHT22;7322;50.872;4.386;2023-08-24T08:10:28;28.10;99.90
14473;DHT22;7322;50.872;4.386;2023-08-24T08:12:58;28.10;99.90
14473;DHT22;7322;50.872;4.386;2023-08-24T08:15:25;28.10;99.90
14473;DHT22;7322;50.872;4.386;2023-08-24T08:17:53;28.20;99.90
14473;DHT22;7322;50.872;4.386;2023-08-24T08:20:20;28.20;99.90
14473;DHT22;7322;50.872;4.386;2023-08-24T08:22:49;28.20;99.90
14473;DHT22;7322;50.872;4.386;2023-08-24T08:25:16;28.20;99.90
14473;DHT22;7322;50.872;4.386;2023-08-24T08:27:44;28.20;99.90
14473;DHT22;7322;50.872;4.386;2023-08-24T08:30:13;28.20;99.90
14473;DHT22;7322;50.872;4.386;2023-08-24T08:32:40;28.30;99.90
14473;DHT22;7322;50.872;4.386;2023-08-24T08:35:08;28.30;99.90
14473;DHT22;7322;50.872;4.386;2023-08-24T08:37:37;28.30;99.90
14473;DHT22;7322;50.872;4.386;2023-08-24T08:40:05;28.30;99.90
14473;DHT22;7322;50.872;4.386;2023-08-24T08:42:38;28.30;99.90
14473;DHT22;7322;50.872;4.386;2023-08-24T08:45:10;28.30;99.90
14473;DHT22;7322;50.872;4.386;2023-08-24T08:47:46;28.30;99.90
14473;DHT22;7322;50.872;4.386;2023-08-24T08:50:14;28.30;99.90
14473;DHT22;7322;50.872;4.386;2023-08-24T08:52:42;28.30;99.90
14473;DHT22;7322;50.872;4.386;2023-08-24T08:55:09;28.30;99.90
14473;DHT22;7322;50.872;4.386;2023-08-24T08:57:37;28.30;99.90
14473;DHT22;7322;50.872;4.386;2023-08-24T09:00:10;28.30;99.90
14473;DHT22;7322;50.872;4.386;2023-08-24T09:02:39;28.30;99.90
14473;DHT22;7322;50.872;4.386;2023-08-24T09:05:09;28.30;99.90
14473;DHT22;7322;50.872;4.386;2023-08-24T09:07:39;28.30;99.90
14473;DHT22;7322;50.872;4.386;2023-08-24T09:10:07;28.30;99.90
14473;DHT22;7322;50.872;4.386;2023-08-24T09:12:35;28.30;99.90
14473;DHT22;7322;50.872;4.386;2023-08-24T09:15:03;28.30;99.90
14473;DHT22;7322;50.872;4.386;2023-08-24T09:17:32;28.30;99.90
14473;DHT22;7322;50.872;4.386;2023-08-24T09:20:06;28.40;99.90
14473;DHT22;7322;50.872;4.386;2023-08-24T09:22:42;28.30;99.90
14473;DHT22;7322;50.872;4.386;2023-08-24T09:25:16;28.40;99.90
14473;DHT22;7322;50.872;4.386;2023-08-24T09:27:43;28.30;99.90
14473;DHT22;7322;50.872;4.386;2023-08-24T09:30:11;28.20;99.90
14473;DHT22;7322;50.872;4.386;2023-08-24T09:32:41;28.20;99.90
14473;DHT22;7322;50.872;4.386;2023-08-24T09:35:10;28.10;99.90
14473;DHT22;7322;50.872;4.386;2023-08-24T09:37:38;28.10;99.90
14473;DHT22;7322;50.872;4.386;2023-08-24T09:40:08;28.10;99.90
14473;DHT22;7322;50.872;4.386;2023-08-24T09:42:43;28.10;99.90
14473;DHT22;7322;50.872;4.386;2023-08-24T09:45:21;28.10;99.90
14473;DHT22;7322;50.872;4.386;2023-08-24T09:47:55;28.20;99.90
14473;DHT22;7322;50.872;4.386;2023-08-24T09:50:23;28.10;99.90
14473;DHT22;7322;50.872;4.386;2023-08-24T09:52:54;28.10;99.90
14473;DHT22;7322;50.872;4.386;2023-08-24T09:55:35;28.10;99.90
14473;DHT22;7322;50.872;4.386;2023-08-24T09:58:03;28.10;99.90
14473;DHT22;7322;50.872;4.386;2023-08-24T10:00:34;28.10;99.90
14473;DHT22;7322;50.872;4.386;2023-08-24T10:03:17;28.00;99.90
14473;DHT22;7322;50.872;4.386;2023-08-24T10:05:51;28.00;99.90
14473;DHT22;7322;50.872;4.386;2023-08-24T10:08:22;27.90;99.90
14473;DHT22;7322;50.872;4.386;2023-08-24T10:10:55;27.90;99.90
14473;DHT22;7322;50.872;4.386;2023-08-24T10:13:31;27.90;99.90
14473;DHT22;7322;50.872;4.386;2023-08-24T10:16:01;27.80;99.90
14473;DHT22;7322;50.872;4.386;2023-08-24T10:18:32;27.90;99.90
14473;DHT22;7322;50.872;4.386;2023-08-24T10:21:00;27.90;99.90
14473;DHT22;7322;50.872;4.386;2023-08-24T10:23:28;27.90;99.90
14473;DHT22;7322;50.872;4.386;2023-08-24T10:26:00;28.00;99.90
14473;DHT22;7322;50.872;4.386;2023-08-24T10:28:30;28.00;99.90
14473;DHT22;7322;50.872;4.386;2023-08-24T10:30:59;28.00;99.90
14473;DHT22;7322;50.872;4.386;2023-08-24T10:33:27;28.00;99.90
14473;DHT22;7322;50.872;4.386;2023-08-24T10:35:54;28.00;99.90
14473;DHT22;7322;50.872;4.386;2023-08-24T10:38:25;28.00;99.90
14473;DHT22;7322;50.872;4.386;2023-08-24T10:40:54;28.10;99.90
14473;DHT22;7322;50.872;4.386;2023-08-24T10:43:23;28.10;99.90
14473;DHT22;7322;50.872;4.386;2023-08-24T10:46:00;28.10;99.90
14473;DHT22;7322;50.872;4.386;2023-08-24T10:48:28;28.10;99.90
14473;DHT22;7322;50.872;4.386;2023-08-24T10:51:17;28.10;99.90
14473;DHT22;7322;50.872;4.386;2023-08-24T10:53:46;28.10;99.90
14473;DHT22;7322;50.872;4.386;2023-08-24T10:56:15;28.10;99.90
14473;DHT22;7322;50.872;4.386;2023-08-24T10:58:45;28.10;99.90
14473;DHT22;7322;50.872;4.386;2023-08-24T11:01:15;28.10;99.90
14473;DHT22;7322;50.872;4.386;2023-08-24T11:03:55;28.10;99.90
14473;DHT22;7322;50.872;4.386;2023-08-24T11:06:23;28.20;99.90
14473;DHT22;7322;50.872;4.386;2023-08-24T11:09:05;28.10;99.90
14473;DHT22;7322;50.872;4.386;2023-08-24T11:11:40;28.20;99.90
14473;DHT22;7322;50.872;4.386;2023-08-24T11:14:17;28.10;99.90
14473;DHT22;7322;50.872;4.386;2023-08-24T11:16:46;28.20;99.90
14473;DHT22;7322;50.872;4.386;2023-08-24T11:19:13;28.10;99.90
14473;DHT22;7322;50.872;4.386;2023-08-24T11:21:42;28.10;99.90
14473;DHT22;7322;50.872;4.386;2023-08-24T11:24:10;28.20;99.90
14473;DHT22;7322;50.872;4.386;2023-08-24T11:26:42;28.20;99.90
14473;DHT22;7322;50.872;4.386;2023-08-24T11:29:10;28.20;99.90
14473;DHT22;7322;50.872;4.386;2023-08-24T11:31:39;28.20;99.90
14473;DHT22;7322;50.872;4.386;2023-08-24T11:34:06;28.20;99.90
14473;DHT22;7322;50.872;4.386;2023-08-24T11:36:41;28.20;99.90
14473;DHT22;7322;50.872;4.386;2023-08-24T11:39:14;28.20;99.90
14473;DHT22;7322;50.872;4.386;2023-08-24T11:41:42;28.20;99.90
14473;DHT22;7322;50.872;4.386;2023-08-24T11:44:10;28.20;99.90
14473;DHT22;7322;50.872;4.386;2023-08-24T11:46:38;28.20;99.90
14473;DHT22;7322;50.872;4.386;2023-08-24T11:49:06;28.20;99.90
14473;DHT22;7322;50.872;4.386;2023-08-24T11:51:33;28.20;99.90
14473;DHT22;7322;50.872;4.386;2023-08-24T11:54:02;28.20;99.90
14473;DHT22;7322;50.872;4.386;2023-08-24T11:56:31;28.20;99.90
14473;DHT22;7322;50.872;4.386;2023-08-24T11:59:00;28.30;99.90
14473;DHT22;7322;50.872;4.386;2023-08-24T12:01:27;28.20;99.90
14473;DHT22;7322;50.872;4.386;2023-08-24T12:03:56;28.20;99.90
14473;DHT22;7322;50.872;4.386;2023-08-24T12:06:26;28.20;99.90
14473;DHT22;7322;50.872;4.386;2023-08-24T12:08:54;28.20;99.90
14473;DHT22;7322;50.872;4.386;2023-08-24T12:11:21;28.20;99.90
14473;DHT22;7322;50.872;4.386;2023-08-24T12:13:52;28.20;99.90
14473;DHT22;7322;50.872;4.386;2023-08-24T12:16:20;28.20;99.90
14473;DHT22;7322;50.872;4.386;2023-08-24T12:18:49;28.20;99.90
14473;DHT22;7322;50.872;4.386;2023-08-24T12:21:18;28.20;99.90
14473;DHT22;7322;50.872;4.386;2023-08-24T12:23:55;28.20;99.90
14473;DHT22;7322;50.872;4.386;2023-08-24T12:26:23;28.20;99.90
14473;DHT22;7322;50.872;4.386;2023-08-24T12:28:51;28.20;99.90
14473;DHT22;7322;50.872;4.386;2023-08-24T12:31:19;28.20;99.90
14473;DHT22;7322;50.872;4.386;2023-08-24T12:33:58;28.20;99.90
14473;DHT22;7322;50.872;4.386;2023-08-24T12:36:36;28.20;99.90
14473;DHT22;7322;50.872;4.386;2023-08-24T12:39:03;28.20;99.90
14473;DHT22;7322;50.872;4.386;2023-08-24T12:41:31;28.20;99.90
14473;DHT22;7322;50.872;4.386;2023-08-24T12:43:58;28.20;99.90
14473;DHT22;7322;50.872;4.386;2023-08-24T12:46:30;28.20;99.90
14473;DHT22;7322;50.872;4.386;2023-08-24T12:48:57;28.20;99.90
14473;DHT22;7322;50.872;4.386;2023-08-24T12:51:25;28.20;99.90
14473;DHT22;7322;50.872;4.386;2023-08-24T12:54:13;28.20;99.90
14473;DHT22;7322;50.872;4.386;2023-08-24T12:56:42;28.20;99.90
14473;DHT22;7322;50.872;4.386;2023-08-24T12:59:27;28.20;99.90
14473;DHT22;7322;50.872;4.386;2023-08-24T13:01:54;28.10;99.90
14473;DHT22;7322;50.872;4.386;2023-08-24T13:04:31;28.00;99.90
14473;DHT22;7322;50.872;4.386;2023-08-24T13:07:05;28.00;99.90
14473;DHT22;7322;50.872;4.386;2023-08-24T13:09:34;28.00;99.90
14473;DHT22;7322;50.872;4.386;2023-08-24T13:12:02;27.90;99.90
14473;DHT22;7322;50.872;4.386;2023-08-24T13:14:36;27.90;99.90
14473;DHT22;7322;50.872;4.386;2023-08-24T13:17:25;27.90;99.90
14473;DHT22;7322;50.872;4.386;2023-08-24T13:19:58;27.80;99.90
14473;DHT22;7322;50.872;4.386;2023-08-24T13:22:27;27.80;99.90
14473;DHT22;7322;50.872;4.386;2023-08-24T13:24:56;27.80;99.90
14473;DHT22;7322;50.872;4.386;2023-08-24T13:27:25;27.70;99.90
14473;DHT22;7322;50.872;4.386;2023-08-24T13:29:53;27.80;99.90
14473;DHT22;7322;50.872;4.386;2023-08-24T13:32:26;27.70;99.90
14473;DHT22;7322;50.872;4.386;2023-08-24T13:34:54;27.70;99.90
14473;DHT22;7322;50.872;4.386;2023-08-24T13:37:35;27.70;99.90
14473;DHT22;7322;50.872;4.386;2023-08-24T13:40:07;27.70;99.90
14473;DHT22;7322;50.872;4.386;2023-08-24T13:42:37;27.70;99.90
14473;DHT22;7322;50.872;4.386;2023-08-24T13:45:09;27.60;99.90
14473;DHT22;7322;50.872;4.386;2023-08-24T13:47:43;27.60;99.90
14473;DHT22;7322;50.872;4.386;2023-08-24T13:50:11;27.60;99.90
14473;DHT22;7322;50.872;4.386;2023-08-24T13:52:40;27.60;99.90
14473;DHT22;7322;50.872;4.386;2023-08-24T13:55:09;27.60;99.90
14473;DHT22;7322;50.872;4.386;2023-08-24T13:57:37;27.60;99.90
14473;DHT22;7322;50.872;4.386;2023-08-24T14:00:05;27.60;99.90
14473;DHT22;7322;50.872;4.386;2023-08-24T14:02:40;27.50;99.90
14473;DHT22;7322;50.872;4.386;2023-08-24T14:05:08;27.50;99.90
14473;DHT22;7322;50.872;4.386;2023-08-24T14:07:38;27.50;99.90
14473;DHT22;7322;50.872;4.386;2023-08-24T14:10:08;27.60;99.90
14473;DHT22;7322;50.872;4.386;2023-08-24T14:12:35;27.60;99.90
14473;DHT22;7322;50.872;4.386;2023-08-24T14:15:03;27.60;99.90
14473;DHT22;7322;50.872;4.386;2023-08-24T14:17:32;27.60;99.90
14473;DHT22;7322;50.872;4.386;2023-08-24T14:19:59;27.50;99.90
14473;DHT22;7322;50.872;4.386;2023-08-24T14:22:31;27.60;99.90
14473;DHT22;7322;50.872;4.386;2023-08-24T14:25:00;27.60;99.90
14473;DHT22;7322;50.872;4.386;2023-08-24T14:27:36;27.60;99.90
14473;DHT22;7322;50.872;4.386;2023-08-24T14:30:05;27.60;99.90
14473;DHT22;7322;50.872;4.386;2023-08-24T14:32:34;27.60;99.90
14473;DHT22;7322;50.872;4.386;2023-08-24T14:35:02;27.60;99.90
14473;DHT22;7322;50.872;4.386;2023-08-24T14:37:45;27.60;99.90
14473;DHT22;7322;50.872;4.386;2023-08-24T14:40:13;27.70;99.90
14473;DHT22;7322;50.872;4.386;2023-08-24T14:42:49;27.70;99.90
14473;DHT22;7322;50.872;4.386;2023-08-24T14:45:18;27.70;99.90
14473;DHT22;7322;50.872;4.386;2023-08-24T14:47:45;27.70;99.90
14473;DHT22;7322;50.872;4.386;2023-08-24T14:50:13;27.70;99.90
14473;DHT22;7322;50.872;4.386;2023-08-24T14:52:40;27.70;99.90
14473;DHT22;7322;50.872;4.386;2023-08-24T14:55:09;27.70;99.90
14473;DHT22;7322;50.872;4.386;2023-08-24T14:57:38;27.70;99.90
14473;DHT22;7322;50.872;4.386;2023-08-24T15:00:12;27.70;99.90
14473;DHT22;7322;50.872;4.386;2023-08-24T15:02:40;27.70;99.90
14473;DHT22;7322;50.872;4.386;2023-08-24T15:05:08;27.70;99.90
14473;DHT22;7322;50.872;4.386;2023-08-24T15:07:35;27.80;99.90
14473;DHT22;7322;50.872;4.386;2023-08-24T15:10:02;27.80;99.90
14473;DHT22;7322;50.872;4.386;2023-08-24T15:12:29;27.80;99.90
14473;DHT22;7322;50.872;4.386;2023-08-24T15:14:57;27.80;99.90
14473;DHT22;7322;50.872;4.386;2023-08-24T15:17:29;27.80;99.90
14473;DHT22;7322;50.872;4.386;2023-08-24T15:19:57;27.80;99.90
14473;DHT22;7322;50.872;4.386;2023-08-24T15:22:25;27.80;99.90
14473;DHT22;7322;50.872;4.386;2023-08-24T15:24:54;27.80;99.90
14473;DHT22;7322;50.872;4.386;2023-08-24T15:27:24;27.80;99.90
14473;DHT22;7322;50.872;4.386;2023-08-24T15:29:51;27.80;99.90
14473;DHT22;7322;50.872;4.386;2023-08-24T15:32:24;27.90;99.90
14473;DHT22;7322;50.872;4.386;2023-08-24T15:34:52;27.90;99.90
14473;DHT22;7322;50.872;4.386;2023-08-24T15:37:20;27.90;99.90
14473;DHT22;7322;50.872;4.386;2023-08-24T15:39:47;27.90;99.90
14473;DHT22;7322;50.872;4.386;2023-08-24T15:42:16;27.90;99.90
14473;DHT22;7322;50.872;4.386;2023-08-24T15:44:44;27.90;99.90
14473;DHT22;7322;50.872;4.386;2023-08-24T15:47:11;27.90;99.90
14473;DHT22;7322;50.872;4.386;2023-08-24T15:49:38;27.90;99.90
14473;DHT22;7322;50.872;4.386;2023-08-24T15:52:08;28.00;99.90
14473;DHT22;7322;50.872;4.386;2023-08-24T15:54:35;28.00;99.90
14473;DHT22;7322;50.872;4.386;2023-08-24T15:57:02;28.00;99.90
14473;DHT22;7322;50.872;4.386;2023-08-24T15:59:29;28.00;99.90
14473;DHT22;7322;50.872;4.386;2023-08-24T16:01:56;28.00;99.90
14473;DHT22;7322;50.872;4.386;2023-08-24T16:04:23;28.10;99.90
14473;DHT22;7322;50.872;4.386;2023-08-24T16:06:51;28.10;99.90
14473;DHT22;7322;50.872;4.386;2023-08-24T16:09:19;28.10;99.90
14473;DHT22;7322;50.872;4.386;2023-08-24T16:11:46;28.10;99.90
14473;DHT22;7322;50.872;4.386;2023-08-24T16:14:13;28.10;99.90
14473;DHT22;7322;50.872;4.386;2023-08-24T16:16:40;28.10;99.90
14473;DHT22;7322;50.872;4.386;2023-08-24T16:19:07;28.10;99.90
14473;DHT22;7322;50.872;4.386;2023-08-24T16:21:34;28.10;99.90
14473;DHT22;7322;50.872;4.386;2023-08-24T16:24:02;28.10;99.90
14473;DHT22;7322;50.872;4.386;2023-08-24T16:26:31;28.10;99.90
14473;DHT22;7322;50.872;4.386;2023-08-24T16:28:58;28.10;99.90
14473;DHT22;7322;50.872;4.386;2023-08-24T16:31:25;28.10;99.90
14473;DHT22;7322;50.872;4.386;2023-08-24T16:33:52;28.10;99.90
14473;DHT22;7322;50.872;4.386;2023-08-24T16:36:19;28.10;99.90
14473;DHT22;7322;50.872;4.386;2023-08-24T16:38:47;28.10;99.90
14473;DHT22;7322;50.872;4.386;2023-08-24T16:41:14;28.10;99.90
14473;DHT22;7322;50.872;4.386;2023-08-24T16:43:42;28.10;99.90
14473;DHT22;7322;50.872;4.386;2023-08-24T16:46:09;28.20;99.90
14473;DHT22;7322;50.872;4.386;2023-08-24T16:48:37;28.20;99.90
14473;DHT22;7322;50.872;4.386;2023-08-24T16:51:05;28.20;99.90
14473;DHT22;7322;50.872;4.386;2023-08-24T16:53:32;28.10;99.90
14473;DHT22;7322;50.872;4.386;2023-08-24T16:56:00;28.20;99.90
14473;DHT22;7322;50.872;4.386;2023-08-24T16:58:28;28.20;99.90